BIENTÔT MET'MAP
version 2.0 !

Prévue avant fin octobre,
la nouvelle version sera
plus belle, plus complète
et hébergée sur un serveur
3 fois plus puissant...
et toujours gratuite !


Pas compatible ?
Essayez la version Mobile !

SE CONNECTER : | S'inscrire | Disclaimer | Découvrir Orbifly |
Code OACI :

TAF - LIPF Ferrara Airport - 05 Jul 2020 05:31 UTC
Data Sources :     NOAA   


- Altitude de l'aérodrome : 20 ft
- Pas de NOTAMs connus.


LIPF - Ferrara Airport

Dernier METAR connu : 2015/08/11 07:55 LIPF 110755Z 07002KT CAVOK 26/20 Q1012
PAS DE TAF


MET'MAP, la Météo Aéronautique d'un coup d'oeil ! - Copyright ORBIFLY Décembre 2007

Développement & Programmation : Alexandra Zaïnal
Co-Développement : Marc-Olivier Méhu
Soutien technique & logistique : Manuel Goepfert
Conception & Financement : Baudouin d'Aumeries